Time;durP1;ratioP1;P1;durP2;ratioP2;P2;SDS_P1;SDS_P2;PMS_P1;PMS_P2;Temp;Humidity;BMP_temperature;BMP_pressure;BME280_temperature;BME280_humidity;BME280_pressure;Samples;Min_cycle;Max_cycle;Signal;HPM_P1;HPM_P2
2023/05/08 00:00:37;;;;;;;8.02;5.75;;;;;;;20.81;57.00;101745.66;5013881;28;20061;-61
2023/05/08 00:03:03;;;;;;;11.27;6.80;;;;;;;20.75;56.96;101746.34;5012237;28;20026;-61
2023/05/08 00:05:28;;;;;;;9.73;6.85;;;;;;;20.68;56.95;101743.50;5012293;28;20044;-62
2023/05/08 00:08:00;;;;;;;7.28;5.75;;;;;;;20.64;57.12;101750.28;5012353;28;20397;-61
2023/05/08 00:10:26;;;;;;;6.55;5.25;;;;;;;20.58;57.06;101739.22;5012281;28;20037;-62
2023/05/08 00:12:51;;;;;;;8.48;6.35;;;;;;;20.56;57.41;101744.84;4996312;28;20497;-61
2023/05/08 00:15:17;;;;;;;10.07;6.38;;;;;;;20.52;56.41;101745.38;5012118;28;20045;-62
2023/05/08 00:17:42;;;;;;;8.35;6.00;;;;;;;20.43;57.12;101740.94;5012350;28;20064;-62
2023/05/08 00:20:08;;;;;;;7.80;6.25;;;;;;;20.38;57.11;101743.34;5011991;28;20401;-62
2023/05/08 00:22:34;;;;;;;7.68;5.80;;;;;;;20.31;57.00;101738.56;5012135;28;20026;-62
2023/05/08 00:24:59;;;;;;;8.32;5.40;;;;;;;20.24;56.78;101748.41;5012011;28;20022;-61
2023/05/08 00:27:24;;;;;;;7.60;5.47;;;;;;;20.17;57.01;101744.66;5013794;28;20121;-62
2023/05/08 00:29:50;;;;;;;9.23;5.68;;;;;;;20.10;57.35;101746.34;5012352;28;20521;-62
2023/05/08 00:32:15;;;;;;;8.82;5.40;;;;;;;20.04;57.53;101738.03;4995358;28;20046;-62
2023/05/08 00:34:41;;;;;;;8.60;5.47;;;;;;;19.98;57.04;101742.25;5013081;28;20037;-62
2023/05/08 00:37:06;;;;;;;13.55;6.20;;;;;;;19.93;57.05;101743.78;5013096;28;20433;-62
2023/05/08 00:39:32;;;;;;;7.15;5.50;;;;;;;19.88;57.59;101746.97;5013353;28;20030;-62
2023/05/08 00:41:57;;;;;;;6.82;5.82;;;;;;;19.84;57.21;101753.78;4995161;28;20038;-62
2023/05/08 00:44:22;;;;;;;9.13;5.63;;;;;;;19.87;57.11;101761.63;5012977;28;20116;-62
2023/05/08 00:46:48;;;;;;;8.95;6.22;;;;;;;19.86;57.18;101754.47;5011420;28;20033;-62
2023/05/08 00:49:14;;;;;;;12.48;6.80;;;;;;;19.86;57.78;101759.06;5011594;28;20034;-62
2023/05/08 00:51:42;;;;;;;8.88;6.28;;;;;;;19.86;56.91;101765.34;5012060;28;20401;-62
2023/05/08 00:54:07;;;;;;;7.68;6.05;;;;;;;19.85;57.34;101758.19;5011852;28;20042;-66
2023/05/08 00:56:34;;;;;;;7.43;6.03;;;;;;;19.84;57.53;101753.78;4995494;28;20092;-61
2023/05/08 00:59:00;;;;;;;7.63;5.07;;;;;;;19.84;57.66;101767.38;4995251;28;20065;-62
2023/05/08 01:01:26;;;;;;;9.40;6.13;;;;;;;19.77;57.84;101761.75;5012424;28;20050;-62
2023/05/08 01:03:51;;;;;;;8.35;6.47;;;;;;;19.74;57.29;101766.66;5012012;28;20041;-64
2023/05/08 01:06:17;;;;;;;9.05;6.35;;;;;;;19.70;58.17;101770.75;5012840;28;20042;-62
2023/05/08 01:08:43;;;;;;;7.88;5.95;;;;;;;19.67;57.45;101768.34;5012812;28;20034;-62
2023/05/08 01:11:26;;;;;;;8.68;6.18;;;;;;;19.64;58.07;101766.81;5011356;28;20498;-62
2023/05/08 01:14:15;;;;;;;8.02;5.80;;;;;;;19.64;57.81;101772.25;5011596;28;20034;-62
2023/05/08 01:16:44;;;;;;;9.27;6.38;;;;;;;19.63;57.99;101772.41;4994965;28;20026;-62
2023/05/08 01:19:27;;;;;;;7.63;5.82;;;;;;;19.61;57.79;101771.72;5011750;28;20105;-62
2023/05/08 01:21:59;;;;;;;7.10;5.53;;;;;;;19.59;57.60;101771.91;5012485;28;20038;-63
2023/05/08 01:25:01;;;;;;;6.68;5.40;;;;;;;19.56;57.64;101774.09;4995486;28;20030;-62
2023/05/08 01:27:41;;;;;;;6.93;5.43;;;;;;;19.52;57.32;101773.56;5012843;28;20061;-62
2023/05/08 01:30:44;;;;;;;6.93;5.40;;;;;;;19.51;57.60;101773.75;5012441;28;20514;-62
2023/05/08 01:33:17;;;;;;;12.43;5.90;;;;;;;19.48;57.74;101777.66;5012543;28;20522;-61
2023/05/08 01:35:46;;;;;;;7.03;5.55;;;;;;;19.44;58.26;101770.81;5011339;28;20030;-61
2023/05/08 01:38:18;;;;;;;8.65;5.45;;;;;;;19.43;57.41;101762.84;5010851;28;20501;-61
2023/05/08 01:40:48;;;;;;;7.55;5.50;;;;;;;19.39;58.43;101766.88;5012398;28;20437;-61
2023/05/08 01:43:34;;;;;;;7.75;5.72;;;;;;;19.40;58.37;101768.59;5015834;28;20037;-61
2023/05/08 01:46:05;;;;;;;7.63;5.55;;;;;;;19.38;58.08;101776.00;5015248;28;20052;-62
2023/05/08 01:48:34;;;;;;;8.02;5.20;;;;;;;19.37;58.44;101768.91;5014972;28;20480;-62
2023/05/08 01:51:04;;;;;;;8.82;5.80;;;;;;;19.34;58.19;101766.50;5014670;28;20498;-62
2023/05/08 01:53:41;;;;;;;11.63;6.30;;;;;;;19.39;58.57;101769.59;5014726;28;20034;-61
2023/05/08 01:56:16;;;;;;;9.20;6.47;;;;;;;19.40;58.47;101771.31;5014465;28;20235;-61
2023/05/08 01:58:42;;;;;;;9.15;7.03;;;;;;;19.42;58.69;101767.41;4997847;28;20038;-62
2023/05/08 02:01:09;;;;;;;8.23;6.07;;;;;;;19.45;58.74;101764.38;5014429;28;20052;-62
2023/05/08 02:03:36;;;;;;;10.75;7.00;;;;;;;19.44;58.18;101773.53;4998450;28;20401;-61
2023/05/08 02:06:03;;;;;;;8.70;6.35;;;;;;;19.45;58.62;101772.53;5014047;28;20052;-62
2023/05/08 02:08:29;;;;;;;9.75;7.03;;;;;;;19.45;57.84;101771.69;5014721;28;20104;-62
2023/05/08 02:10:55;;;;;;;8.20;5.72;;;;;;;19.47;58.45;101769.63;4997970;28;20030;-62
2023/05/08 02:13:20;;;;;;;7.55;6.15;;;;;;;19.47;58.74;101767.78;4998312;28;20034;-62
2023/05/08 02:15:47;;;;;;;8.13;6.70;;;;;;;19.49;58.46;101765.72;4998300;28;20037;-62
2023/05/08 02:18:13;;;;;;;9.88;6.88;;;;;;;19.52;58.32;101770.00;4997837;28;20141;-61
2023/05/08 02:20:39;;;;;;;8.27;6.75;;;;;;;19.54;58.59;101774.25;5013860;28;20137;-62
2023/05/08 02:23:05;;;;;;;8.18;6.15;;;;;;;19.49;58.29;101775.75;4997665;28;20041;-62
2023/05/08 02:25:31;;;;;;;11.07;6.65;;;;;;;19.48;58.93;101776.78;5014215;28;20030;-62
2023/05/08 02:27:57;;;;;;;8.15;6.28;;;;;;;19.45;58.79;101772.53;5013900;28;20068;-62
2023/05/08 02:30:25;;;;;;;9.23;5.43;;;;;;;19.45;58.80;101766.25;4997829;28;20493;-62
2023/05/08 02:32:51;;;;;;;10.43;6.28;;;;;;;19.44;58.26;101769.97;5013996;28;20125;-63
2023/05/08 02:35:18;;;;;;;9.30;6.32;;;;;;;19.47;58.94;101772.34;4998168;28;20569;-61
2023/05/08 02:37:54;;;;;;;7.47;6.30;;;;;;;19.47;59.08;101777.78;5014895;28;20112;-62
2023/05/08 02:40:25;;;;;;;8.02;6.05;;;;;;;19.45;58.94;101777.97;5014954;28;20038;-62
2023/05/08 02:42:51;;;;;;;7.00;5.45;;;;;;;19.43;58.60;101781.88;5014153;28;20037;-61
2023/05/08 02:45:17;;;;;;;9.55;5.72;;;;;;;19.42;58.90;101782.88;5013476;28;20398;-61
2023/05/08 02:48:08;;;;;;;9.73;5.95;;;;;;;19.42;59.00;101780.16;5012559;28;20034;-62
2023/05/08 02:50:40;;;;;;;6.45;5.40;;;;;;;19.40;59.12;101779.47;5014690;28;20029;-62
2023/05/08 02:53:10;;;;;;;7.55;5.95;;;;;;;19.39;58.75;101783.19;5014503;28;20030;-62
2023/05/08 02:55:48;;;;;;;7.20;6.00;;;;;;;19.34;58.95;101785.53;4997127;28;20045;-62
2023/05/08 02:58:21;;;;;;;6.85;5.90;;;;;;;19.35;59.04;101792.63;5013262;28;20050;-62
2023/05/08 03:00:59;;;;;;;8.50;6.47;;;;;;;19.29;59.33;101777.84;4997262;28;20370;-61
2023/05/08 03:03:35;;;;;;;7.35;6.32;;;;;;;19.28;59.00;101783.44;5013647;28;20493;-61
2023/05/08 03:06:01;;;;;;;10.15;6.80;;;;;;;19.27;58.92;101785.31;5014451;28;20038;-62
2023/05/08 03:08:29;;;;;;;10.35;6.18;;;;;;;19.24;59.12;101773.91;5013020;28;20037;-62
2023/05/08 03:10:58;;;;;;;11.48;6.72;;;;;;;19.24;59.30;101782.06;5013142;28;20036;-62
2023/05/08 03:13:24;;;;;;;8.57;5.97;;;;;;;19.23;59.07;101774.94;4996902;28;20129;-62
2023/05/08 03:15:50;;;;;;;8.27;6.05;;;;;;;19.19;59.38;101777.97;5013711;28;20025;-62
2023/05/08 03:18:20;;;;;;;8.85;6.30;;;;;;;19.21;59.28;101779.69;5013011;28;20471;-62
2023/05/08 03:20:48;;;;;;;12.48;6.35;;;;;;;19.18;59.31;101776.25;5012920;28;20038;-62
2023/05/08 03:23:16;;;;;;;8.75;7.15;;;;;;;19.22;59.64;101771.38;5013193;28;20375;-62
2023/05/08 03:25:42;;;;;;;9.27;6.95;;;;;;;19.21;59.02;101768.81;5012676;28;20452;-61
2023/05/08 03:28:08;;;;;;;8.77;6.50;;;;;;;19.22;59.20;101765.06;5013981;28;20108;-62
2023/05/08 03:30:37;;;;;;;11.00;7.20;;;;;;;19.20;59.52;101773.41;5013156;28;20044;-62
2023/05/08 03:33:06;;;;;;;7.80;5.95;;;;;;;19.21;59.37;101774.25;5012736;28;20030;-62
2023/05/08 03:35:36;;;;;;;7.10;5.55;;;;;;;19.18;59.46;101773.53;5012563;28;20030;-61
2023/05/08 03:38:01;;;;;;;16.23;7.28;;;;;;;19.18;59.57;101773.53;5013970;28;20034;-62
2023/05/08 03:40:27;;;;;;;10.07;7.20;;;;;;;19.19;59.67;101769.81;4996054;28;20516;-62
2023/05/08 03:42:53;;;;;;;10.18;7.25;;;;;;;19.18;59.60;101768.09;4996493;28;20053;-62
2023/05/08 03:45:19;;;;;;;9.02;6.13;;;;;;;19.21;59.36;101774.25;5014013;28;20048;-62
2023/05/08 03:47:45;;;;;;;9.50;6.15;;;;;;;19.17;59.26;101774.56;5012629;28;20060;-62
2023/05/08 03:50:10;;;;;;;12.13;7.35;;;;;;;19.19;59.89;101783.41;5012373;28;20026;-62
2023/05/08 03:52:37;;;;;;;10.65;7.35;;;;;;;19.18;59.77;101778.13;5014129;28;20049;-62
2023/05/08 03:55:03;;;;;;;10.70;6.82;;;;;;;19.16;59.59;101772.88;5012628;28;20056;-62
2023/05/08 03:57:37;;;;;;;9.75;6.93;;;;;;;19.21;59.34;101780.50;5012705;28;20046;-61
2023/05/08 04:00:08;;;;;;;10.27;7.78;;;;;;;19.23;59.80;101766.78;5012521;28;20042;-62
2023/05/08 04:02:43;;;;;;;12.30;8.65;;;;;;;19.26;59.50;101771.91;5012800;28;20104;-61
2023/05/08 04:05:33;;;;;;;11.27;6.70;;;;;;;19.26;59.33;101771.91;5011787;28;20164;-62
2023/05/08 04:08:10;;;;;;;12.23;7.50;;;;;;;19.25;59.46;101759.31;5013606;28;20505;-62
2023/05/08 04:10:43;;;;;;;8.88;7.30;;;;;;;19.26;59.61;101769.19;5012891;28;20037;-62
2023/05/08 04:13:12;;;;;;;13.57;8.05;;;;;;;19.26;59.85;101764.59;4999366;28;20036;-62
2023/05/08 04:15:43;;;;;;;8.02;6.60;;;;;;;19.29;59.42;101766.16;5014096;28;20156;-62
2023/05/08 04:18:11;;;;;;;10.63;7.20;;;;;;;19.33;59.54;101772.94;4995658;28;20041;-61
2023/05/08 04:20:41;;;;;;;10.82;8.07;;;;;;;19.38;59.44;101771.47;5012057;28;20030;-61
2023/05/08 04:23:07;;;;;;;11.10;8.05;;;;;;;19.42;59.22;101767.41;4996059;28;20026;-61
2023/05/08 04:25:35;;;;;;;10.07;7.72;;;;;;;19.47;59.27;101775.06;4995918;28;20030;-62
2023/05/08 04:28:01;;;;;;;10.13;7.57;;;;;;;19.48;59.69;101766.78;5012136;28;20101;-62
2023/05/08 04:30:27;;;;;;;13.20;7.68;;;;;;;19.56;58.58;101768.66;5012621;28;20022;-61
2023/05/08 04:32:53;;;;;;;8.40;6.20;;;;;;;19.60;59.69;101767.28;4994831;28;20033;-61
2023/05/08 04:35:19;;;;;;;12.23;8.10;;;;;;;19.67;59.36;101773.78;5011957;28;20034;-61
2023/05/08 04:37:44;;;;;;;13.55;7.97;;;;;;;19.74;59.21;101777.53;4995704;28;20084;-62
2023/05/08 04:40:10;;;;;;;11.85;7.38;;;;;;;19.79;58.80;101777.91;4995216;28;20025;-62
2023/05/08 04:42:37;;;;;;;8.95;7.60;;;;;;;19.90;59.32;101787.63;5013264;28;20018;-62
2023/05/08 04:45:03;;;;;;;10.43;8.05;;;;;;;19.96;59.16;101787.78;4995511;28;20513;-62
2023/05/08 04:47:28;;;;;;;11.05;7.88;;;;;;;20.04;59.44;101790.56;4995608;28;20045;-62
2023/05/08 04:49:54;;;;;;;10.82;7.93;;;;;;;20.11;59.14;101788.84;4996029;28;20462;-62
2023/05/08 04:52:19;;;;;;;15.55;8.13;;;;;;;20.15;59.24;101790.25;5012106;28;20034;-62
2023/05/08 04:54:45;;;;;;;14.10;7.53;;;;;;;20.21;58.98;101797.69;5012802;28;20105;-62
2023/05/08 04:57:10;;;;;;;12.55;7.75;;;;;;;20.28;59.10;101798.78;5011728;28;20048;-64
2023/05/08 04:59:35;;;;;;;11.68;7.78;;;;;;;20.32;58.82;101789.25;5013291;28;20453;-62
2023/05/08 05:02:01;;;;;;;9.50;6.88;;;;;;;20.41;58.94;101797.44;4995413;28;20038;-61
2023/05/08 05:04:27;;;;;;;9.65;6.88;;;;;;;20.43;58.78;101785.34;4995401;28;20030;-61
2023/05/08 05:06:52;;;;;;;10.48;6.70;;;;;;;20.52;58.91;101789.75;5012342;28;20065;-62
2023/05/08 05:09:18;;;;;;;11.20;6.57;;;;;;;20.57;59.01;101798.28;4978905;28;20049;-62
2023/05/08 05:11:43;;;;;;;9.45;6.85;;;;;;;20.64;58.94;101798.44;5011470;28;20141;-61
2023/05/08 05:14:09;;;;;;;8.68;5.97;;;;;;;20.68;58.92;101802.53;5012674;28;20041;-61
2023/05/08 05:16:34;;;;;;;10.15;6.85;;;;;;;20.74;58.81;101801.84;4997845;28;20030;-62
2023/05/08 05:18:59;;;;;;;11.63;6.05;;;;;;;20.81;58.54;101813.75;5014171;28;20558;-62
2023/05/08 05:21:26;;;;;;;9.98;5.82;;;;;;;20.81;58.94;101811.88;5015505;28;20088;-62
2023/05/08 05:23:52;;;;;;;9.30;6.15;;;;;;;20.90;58.57;101819.03;5016354;28;20030;-61
2023/05/08 05:26:18;;;;;;;7.20;5.75;;;;;;;20.98;58.95;101807.25;5016427;28;20042;-62
2023/05/08 05:28:43;;;;;;;12.13;7.22;;;;;;;21.00;58.22;101810.66;5016946;28;20037;-61
2023/05/08 05:31:09;;;;;;;11.07;6.32;;;;;;;21.12;58.70;101809.31;5035982;28;20544;-62
2023/05/08 05:33:34;;;;;;;7.03;5.28;;;;;;;21.20;58.92;101812.00;5035131;28;20041;-61
2023/05/08 05:36:00;;;;;;;12.10;6.00;;;;;;;21.32;58.88;101810.63;5034549;28;20088;-62
2023/05/08 05:38:26;;;;;;;7.97;5.35;;;;;;;21.45;58.35;101815.50;5035097;28;20128;-62
2023/05/08 05:40:51;;;;;;;10.95;6.63;;;;;;;21.55;58.61;101812.59;5034610;28;20456;-62
2023/05/08 05:43:17;;;;;;;10.57;6.28;;;;;;;21.70;57.79;101813.53;5034936;28;20030;-62
2023/05/08 05:45:42;;;;;;;10.90;6.05;;;;;;;21.86;58.18;101813.47;5051598;28;20055;-62
2023/05/08 05:48:08;;;;;;;11.65;6.28;;;;;;;22.04;56.83;101819.53;5035922;28;20489;-62
2023/05/08 05:50:33;;;;;;;11.43;7.07;;;;;;;22.29;57.17;101821.06;5052634;28;20041;-65
2023/05/08 05:52:59;;;;;;;11.68;7.35;;;;;;;22.45;57.14;101814.63;5036963;28;20445;-62
2023/05/08 05:55:25;;;;;;;13.23;7.20;;;;;;;22.69;56.50;101821.84;5033197;28;20079;-62
2023/05/08 05:57:50;;;;;;;11.43;7.65;;;;;;;22.86;56.33;101829.72;5034763;28;20061;-62
2023/05/08 06:00:17;;;;;;;15.00;7.93;;;;;;;22.98;55.29;101827.34;5034146;28;20493;-62
2023/05/08 06:02:43;;;;;;;13.48;6.50;;;;;;;23.09;55.70;101825.03;5034439;28;20571;-62
2023/05/08 06:05:09;;;;;;;15.35;8.23;;;;;;;23.25;55.85;101836.84;5050754;28;20037;-62
2023/05/08 06:07:34;;;;;;;11.95;7.55;;;;;;;23.32;55.46;101835.88;5035479;28;20033;-62
2023/05/08 06:10:01;;;;;;;14.82;8.25;;;;;;;23.42;55.96;101841.94;5025395;28;20025;-62
2023/05/08 06:12:27;;;;;;;15.63;8.20;;;;;;;23.59;55.27;101838.00;5049445;28;20516;-62
2023/05/08 06:14:53;;;;;;;12.98;8.68;;;;;;;23.60;54.87;101839.69;5051312;28;20030;-62
2023/05/08 06:17:18;;;;;;;13.30;8.60;;;;;;;23.47;55.41;101839.53;5051024;28;20069;-62
2023/05/08 06:19:49;;;;;;;16.33;8.95;;;;;;;23.33;55.52;101843.06;5050849;28;20103;-62
2023/05/08 06:22:17;;;;;;;16.40;9.45;;;;;;;23.17;56.01;101852.28;5034193;28;20034;-62
2023/05/08 06:24:43;;;;;;;19.45;9.40;;;;;;;23.00;56.52;101844.44;5051248;28;20393;-62
2023/05/08 06:27:09;;;;;;;17.02;9.88;;;;;;;22.92;56.14;101852.72;5032648;28;20525;-62
2023/05/08 06:29:35;;;;;;;17.80;9.65;;;;;;;22.84;56.07;101852.75;5034940;28;20519;-62
2023/05/08 06:32:00;;;;;;;17.35;10.40;;;;;;;22.82;56.29;101852.09;5034875;28;20036;-62
2023/05/08 06:34:25;;;;;;;21.10;12.15;;;;;;;22.82;55.84;101855.69;5033640;28;20037;-62
2023/05/08 06:36:51;;;;;;;22.17;11.32;;;;;;;22.79;56.81;101855.19;5034272;28;20048;-62
2023/05/08 06:39:16;;;;;;;21.83;12.00;;;;;;;22.77;56.11;101860.00;5034862;28;20060;-61
2023/05/08 06:41:42;;;;;;;20.15;10.90;;;;;;;22.76;55.91;101853.69;5034002;28;20456;-61
2023/05/08 06:44:07;;;;;;;21.05;11.35;;;;;;;22.72;55.88;101851.50;5034587;28;20037;-62
2023/05/08 06:46:32;;;;;;;20.98;11.55;;;;;;;22.69;56.31;101854.63;5033346;28;20026;-62
2023/05/08 06:48:58;;;;;;;27.25;13.00;;;;;;;22.69;56.71;101863.66;5033400;28;20025;-61
2023/05/08 06:51:23;;;;;;;34.38;14.35;;;;;;;22.67;56.02;101867.63;5033829;28;20018;-62
2023/05/08 06:53:49;;;;;;;25.38;13.93;;;;;;;22.61;56.40;101859.06;5033129;28;20037;-61
2023/05/08 06:56:14;;;;;;;30.30;14.48;;;;;;;22.52;56.43;101865.63;5000439;28;20143;-61
2023/05/08 06:58:39;;;;;;;31.65;14.68;;;;;;;22.51;56.44;101869.38;5016309;28;20033;-63
2023/05/08 07:01:05;;;;;;;26.35;14.13;;;;;;;22.64;56.31;101873.44;5016475;28;20045;-64
2023/05/08 07:03:30;;;;;;;29.38;14.20;;;;;;;22.71;55.75;101868.94;5033597;28;20112;-61
2023/05/08 07:05:56;;;;;;;29.15;16.20;;;;;;;22.71;56.16;101861.59;5016366;28;20033;-63
2023/05/08 07:08:21;;;;;;;32.97;15.13;;;;;;;22.75;56.65;101875.75;5033053;28;20034;-63
2023/05/08 07:10:47;;;;;;;33.05;16.90;;;;;;;22.79;55.84;101872.44;5016667;28;20026;-61
2023/05/08 07:13:12;;;;;;;34.25;16.92;;;;;;;22.82;56.37;101876.69;5016561;28;20518;-63
2023/05/08 07:15:40;;;;;;;29.70;15.50;;;;;;;22.82;56.42;101872.09;5034612;28;20105;-63
2023/05/08 07:18:05;;;;;;;33.33;16.00;;;;;;;22.83;55.97;101875.66;5032910;28;20524;-63
2023/05/08 07:20:31;;;;;;;32.67;17.63;;;;;;;22.77;56.48;101870.94;5033934;28;20038;-63
2023/05/08 07:22:56;;;;;;;31.08;16.35;;;;;;;22.75;56.19;101875.75;4999785;28;20041;-63
2023/05/08 07:25:21;;;;;;;34.38;17.15;;;;;;;22.70;57.14;101872.72;5032764;28;20040;-63
2023/05/08 07:27:47;;;;;;;34.00;16.42;;;;;;;22.64;56.13;101884.38;5033194;28;20029;-64
2023/05/08 07:30:12;;;;;;;37.75;17.75;;;;;;;22.59;57.12;101885.72;5034437;28;20452;-63
2023/05/08 07:32:38;;;;;;;42.22;17.92;;;;;;;22.63;56.90;101875.28;5033730;28;20121;-63
2023/05/08 07:35:05;;;;;;;40.25;17.40;;;;;;;22.65;56.31;101886.03;5032528;28;20029;-64
2023/05/08 07:37:31;;;;;;;36.97;17.63;;;;;;;22.70;56.35;101889.94;5015843;28;20080;-63
2023/05/08 07:39:57;;;;;;;35.42;17.48;;;;;;;22.74;56.90;101879.50;5032167;28;20115;-64
2023/05/08 07:42:22;;;;;;;37.97;19.25;;;;;;;22.76;56.39;101878.28;5033959;28;20485;-63
2023/05/08 07:44:48;;;;;;;37.45;18.10;;;;;;;22.84;57.08;101885.56;5015825;28;20120;-63
2023/05/08 07:47:13;;;;;;;39.88;19.02;;;;;;;22.86;56.38;101884.38;5032196;28;20043;-64
2023/05/08 07:49:38;;;;;;;35.95;18.17;;;;;;;22.90;56.51;101893.03;5033361;28;20053;-63
2023/05/08 07:52:04;;;;;;;40.67;19.27;;;;;;;22.90;56.71;101887.56;5033320;28;20444;-63
2023/05/08 07:54:29;;;;;;;34.20;16.00;;;;;;;22.88;56.27;101873.22;5032481;28;20037;-63
2023/05/08 07:56:55;;;;;;;39.85;17.92;;;;;;;22.95;55.87;101885.13;5015713;28;20026;-63
2023/05/08 07:59:20;;;;;;;43.00;19.08;;;;;;;22.97;56.77;101891.25;5015400;28;20037;-63
2023/05/08 08:01:46;;;;;;;35.88;17.27;;;;;;;23.03;56.14;101879.59;5031795;28;20034;-63
2023/05/08 08:04:14;;;;;;;38.78;19.20;;;;;;;23.23;55.50;101888.94;5015636;28;20449;-63
2023/05/08 08:06:40;;;;;;;40.42;19.95;;;;;;;23.45;55.29;101879.88;5033593;28;20040;-63
2023/05/08 08:09:05;;;;;;;42.45;17.80;;;;;;;23.67;55.11;101870.72;5032931;28;20033;-63
2023/05/08 08:11:31;;;;;;;40.38;20.23;;;;;;;24.02;54.80;101887.41;5031628;28;20033;-64
2023/05/08 08:13:56;;;;;;;40.42;20.65;;;;;;;24.22;54.24;101891.28;5015256;28;20029;-64
2023/05/08 08:16:21;;;;;;;41.15;20.50;;;;;;;24.33;53.69;101885.28;5032903;28;20475;-63
2023/05/08 08:18:47;;;;;;;42.65;20.90;;;;;;;24.37;53.59;101881.13;5032271;28;20098;-63
2023/05/08 08:21:12;;;;;;;43.85;21.33;;;;;;;24.33;54.57;101890.78;5031431;28;20040;-64
2023/05/08 08:23:38;;;;;;;44.67;22.08;;;;;;;24.24;54.69;101880.97;5015202;28;20497;-63
2023/05/08 08:26:03;;;;;;;46.55;21.88;;;;;;;24.24;54.85;101886.44;5031594;28;20566;-63
2023/05/08 08:28:28;;;;;;;47.17;22.27;;;;;;;24.39;54.27;101883.66;5031400;28;20037;-63
2023/05/08 08:30:54;;;;;;;44.08;22.27;;;;;;;24.40;54.13;101880.72;5014984;28;20421;-64
2023/05/08 08:33:20;;;;;;;55.67;24.40;;;;;;;24.42;53.73;101884.16;5031828;28;20116;-63
2023/05/08 08:35:45;;;;;;;50.40;24.38;;;;;;;24.35;53.69;101883.19;5031392;28;20036;-63
2023/05/08 08:38:12;;;;;;;52.70;25.35;;;;;;;24.21;54.38;101878.63;5031432;28;20034;-63
2023/05/08 08:40:39;;;;;;;55.92;24.23;;;;;;;24.06;54.45;101880.53;5015000;28;20030;-63
2023/05/08 08:43:04;;;;;;;48.97;24.20;;;;;;;23.90;55.48;101880.75;5031430;28;20029;-63
2023/05/08 08:45:30;;;;;;;49.33;23.92;;;;;;;23.79;55.12;101882.03;5015275;28;20025;-63
2023/05/08 08:48:00;;;;;;;52.53;24.73;;;;;;;23.77;55.16;101884.97;5031219;28;20034;-64
2023/05/08 08:50:29;;;;;;;54.45;23.38;;;;;;;23.84;54.61;101881.50;5032431;28;20037;-63
2023/05/08 08:53:00;;;;;;;57.95;25.60;;;;;;;23.96;54.41;101879.94;5018929;28;20087;-63
2023/05/08 08:55:26;;;;;;;53.33;24.02;;;;;;;24.11;54.37;101878.94;5035232;28;20091;-63
2023/05/08 08:58:14;;;;;;;49.88;24.23;;;;;;;24.37;53.41;101881.13;5035471;28;20464;-64
2023/05/08 09:00:40;;;;;;;51.63;24.80;;;;;;;24.52;53.72;101881.06;5018894;28;20044;-63
2023/05/08 09:03:08;;;;;;;55.22;25.90;;;;;;;24.61;53.24;101878.03;5035092;28;20029;-63
2023/05/08 09:05:34;;;;;;;54.00;24.30;;;;;;;24.75;53.25;101874.38;5035459;28;20444;-64
2023/05/08 09:08:00;;;;;;;54.25;24.90;;;;;;;25.06;52.50;101871.31;5036369;28;20034;-63
2023/05/08 09:10:25;;;;;;;50.78;26.25;;;;;;;25.29;52.35;101868.31;5036197;28;20030;-63
2023/05/08 09:12:50;;;;;;;54.15;25.05;;;;;;;25.37;52.22;101869.00;5018942;28;20029;-63
2023/05/08 09:15:16;;;;;;;50.17;25.33;;;;;;;25.32;52.42;101860.50;5035108;28;20034;-63
2023/05/08 09:17:41;;;;;;;49.45;22.80;;;;;;;25.61;52.20;101864.09;5018392;28;20040;-63
2023/05/08 09:20:08;;;;;;;45.60;24.90;;;;;;;26.32;50.48;101866.38;5018377;28;20524;-63
2023/05/08 09:22:35;;;;;;;48.97;23.70;;;;;;;27.43;48.76;101864.78;5018374;28;20087;-64
2023/05/08 09:25:02;;;;;;;43.90;22.60;;;;;;;28.26;47.73;101861.97;5034774;28;20061;-63
2023/05/08 09:27:29;;;;;;;45.67;23.50;;;;;;;29.86;44.29;101850.25;5035130;28;20025;-64
2023/05/08 09:30:02;;;;;;;44.10;21.75;;;;;;;30.62;43.56;101849.63;5018072;28;20041;-64
2023/05/08 09:32:29;;;;;;;40.90;23.33;;;;;;;30.14;44.47;101847.75;5036011;28;20041;-63
2023/05/08 09:34:55;;;;;;;39.92;22.08;;;;;;;29.84;45.21;101847.72;5018075;28;20029;-63
2023/05/08 09:37:20;;;;;;;40.90;21.65;;;;;;;29.39;46.19;101860.94;5034722;28;20547;-64
2023/05/08 09:39:46;;;;;;;41.45;22.20;;;;;;;28.96;46.72;101859.19;5036332;28;20033;-63
2023/05/08 09:42:12;;;;;;;43.00;22.75;;;;;;;28.51;47.25;101866.69;5035705;28;20378;-62
2023/05/08 09:44:52;;;;;;;40.03;21.30;;;;;;;28.09;47.37;101866.28;5034529;28;20432;-63
2023/05/08 09:47:21;;;;;;;43.40;21.70;;;;;;;27.93;48.21;101869.50;5018110;28;20036;-64
2023/05/08 09:50:01;;;;;;;41.05;20.30;;;;;;;28.01;47.10;101877.53;5034430;28;20030;-63
2023/05/08 09:52:27;;;;;;;40.17;20.83;;;;;;;28.09;47.63;101874.56;5034321;28;20038;-64
2023/05/08 09:55:09;;;;;;;37.28;19.05;;;;;;;28.09;46.75;101879.22;5018417;28;20030;-62
2023/05/08 09:57:37;;;;;;;35.45;18.30;;;;;;;27.98;47.76;101882.63;5034274;28;20056;-63
2023/05/08 10:00:12;;;;;;;30.10;17.83;;;;;;;27.84;47.40;101873.56;5034071;28;20033;-64
2023/05/08 10:02:40;;;;;;;34.13;17.42;;;;;;;27.77;47.83;101872.75;5033859;28;20064;-63
2023/05/08 10:05:26;;;;;;;33.30;17.73;;;;;;;27.66;47.03;101874.28;5034106;28;20030;-63
2023/05/08 10:07:51;;;;;;;34.05;17.52;;;;;;;27.65;47.33;101869.81;5017612;28;20075;-63
2023/05/08 10:10:27;;;;;;;32.22;17.90;;;;;;;27.77;47.48;101870.00;5001285;28;20427;-63
2023/05/08 10:12:54;;;;;;;33.00;17.85;;;;;;;27.71;46.28;101876.38;5034588;28;20032;-63
2023/05/08 10:15:24;;;;;;;39.05;20.15;;;;;;;27.90;46.34;101880.97;5017537;28;20103;-62
2023/05/08 10:17:55;;;;;;;41.78;19.50;;;;;;;28.38;45.66;101878.66;5033844;28;20175;-64
2023/05/08 10:20:24;;;;;;;38.53;19.95;;;;;;;28.45;46.19;101878.63;5017280;28;20033;-64
2023/05/08 10:22:50;;;;;;;39.00;18.90;;;;;;;28.51;45.35;101874.97;5017276;28;20026;-64
2023/05/08 10:25:17;;;;;;;41.80;19.25;;;;;;;28.66;44.95;101875.53;5016745;28;20053;-64
2023/05/08 10:27:54;;;;;;;37.08;19.15;;;;;;;28.91;45.34;101881.09;5018006;28;20091;-64
2023/05/08 10:30:23;;;;;;;43.33;19.88;;;;;;;28.85;44.89;101869.03;5035056;28;20045;-64
2023/05/08 10:32:53;;;;;;;42.05;19.75;;;;;;;29.35;44.14;101876.25;5017051;28;20037;-64
2023/05/08 10:35:20;;;;;;;37.40;19.13;;;;;;;30.51;42.22;101871.47;5017432;28;20041;-64
2023/05/08 10:37:46;;;;;;;42.70;21.60;;;;;;;32.30;40.27;101859.72;5033377;28;20112;-64
2023/05/08 10:40:14;;;;;;;43.60;21.48;;;;;;;32.57;39.72;101858.03;5033419;28;20481;-64
2023/05/08 10:42:40;;;;;;;36.17;19.80;;;;;;;32.77;39.86;101863.97;5033869;28;20491;-63
2023/05/08 10:45:06;;;;;;;39.75;19.88;;;;;;;33.88;37.41;101856.53;5034604;28;20168;-63
2023/05/08 10:47:39;;;;;;;34.67;20.08;;;;;;;35.55;35.27;101856.25;5033259;28;20041;-63
2023/05/08 10:50:20;;;;;;;38.53;20.02;;;;;;;35.50;35.28;101851.47;5034535;28;20493;-63
2023/05/08 10:52:56;;;;;;;34.20;17.95;;;;;;;36.60;33.95;101847.44;5033139;28;20120;-63
2023/05/08 10:55:24;;;;;;;34.38;19.08;;;;;;;37.56;32.45;101843.78;5034410;28;20053;-63
2023/05/08 10:58:11;;;;;;;32.90;18.60;;;;;;;38.19;31.99;101843.00;5035104;28;20045;-65
2023/05/08 11:00:51;;;;;;;32.30;19.27;;;;;;;38.97;31.89;101834.63;5033822;28;20098;-62
2023/05/08 11:03:18;;;;;;;31.58;18.17;;;;;;;39.61;31.27;101830.59;5032915;28;20095;-62
2023/05/08 11:05:49;;;;;;;33.15;18.25;;;;;;;39.54;30.44;101826.16;5033005;28;20033;-62
2023/05/08 11:08:16;;;;;;;31.23;17.75;;;;;;;38.90;31.60;101822.88;5032966;28;20056;-63
2023/05/08 11:10:48;;;;;;;34.08;18.58;;;;;;;39.90;29.58;101820.13;5034154;28;20022;-62
2023/05/08 11:13:14;;;;;;;30.95;16.88;;;;;;;37.74;32.44;101816.03;5032747;28;20033;-63
2023/05/08 11:15:40;;;;;;;30.30;17.52;;;;;;;38.12;31.17;101824.81;5033237;28;20636;-62
2023/05/08 11:18:08;;;;;;;31.77;18.17;;;;;;;39.35;30.03;101814.03;5032923;28;20026;-62
2023/05/08 11:20:38;;;;;;;33.90;17.98;;;;;;;38.61;30.77;101810.78;5015932;28;20075;-63